createdAt,value
2018-05-15T00:00:22.250Z,999.6
2018-05-15T00:01:22.971Z,999.6
2018-05-15T00:02:23.689Z,999.6
2018-05-15T00:03:24.401Z,999.6
2018-05-15T00:04:25.126Z,999.7
2018-05-15T00:05:26.185Z,999.6
2018-05-15T00:06:26.904Z,999.7
2018-05-15T00:07:27.627Z,999.7
2018-05-15T00:08:28.341Z,999.7
2018-05-15T00:09:29.105Z,999.7
2018-05-15T00:10:29.827Z,999.6
2018-05-15T00:11:30.570Z,999.7
2018-05-15T00:12:31.344Z,999.7
2018-05-15T00:13:32.069Z,999.7
2018-05-15T00:14:32.797Z,999.6
2018-05-15T00:15:33.525Z,999.7
2018-05-15T00:16:34.306Z,999.6
2018-05-15T00:17:34.952Z,999.6
2018-05-15T00:18:35.923Z,999.6
2018-05-15T00:19:36.653Z,999.6
2018-05-15T00:20:37.369Z,999.6
2018-05-15T00:21:38.104Z,999.6
2018-05-15T00:22:38.818Z,999.6
2018-05-15T00:23:39.528Z,999.6
2018-05-15T00:24:40.246Z,999.6
2018-05-15T00:25:40.969Z,999.6
2018-05-15T00:26:41.689Z,999.6
2018-05-15T00:27:42.417Z,999.6
2018-05-15T00:28:43.194Z,999.7
2018-05-15T00:29:43.907Z,999.6
2018-05-15T00:30:44.878Z,999.7
2018-05-15T00:31:45.592Z,999.7
2018-05-15T00:32:46.324Z,999.7
2018-05-15T00:33:47.051Z,999.7
2018-05-15T00:34:47.783Z,999.7
2018-05-15T00:35:48.493Z,999.7
2018-05-15T00:36:49.212Z,999.7
2018-05-15T00:37:49.931Z,999.7
2018-05-15T00:38:50.656Z,999.6
2018-05-15T00:39:51.378Z,999.7
2018-05-15T00:40:52.344Z,999.7
2018-05-15T00:41:53.066Z,999.7
2018-05-15T00:42:53.784Z,999.6
2018-05-15T00:43:54.505Z,999.6
2018-05-15T00:44:55.233Z,999.6
2018-05-15T00:45:56.218Z,999.7
2018-05-15T00:46:56.934Z,999.6
2018-05-15T00:47:57.639Z,999.7
2018-05-15T00:48:58.606Z,999.7
2018-05-15T00:49:59.313Z,999.7
2018-05-15T00:51:00.031Z,999.7
2018-05-15T00:52:00.744Z,999.7
2018-05-15T00:53:01.461Z,999.7
2018-05-15T00:54:02.179Z,999.7
2018-05-15T00:55:02.904Z,999.7
2018-05-15T00:56:03.630Z,999.7
2018-05-15T00:57:04.341Z,999.7
2018-05-15T00:58:05.077Z,999.7
2018-05-15T00:59:05.796Z,999.7
2018-05-15T01:00:06.515Z,999.7
2018-05-15T01:01:07.226Z,999.8
2018-05-15T01:02:07.989Z,999.7
2018-05-15T01:03:08.704Z,999.8
2018-05-15T01:04:09.416Z,999.7
2018-05-15T01:05:10.138Z,999.7
2018-05-15T01:06:10.851Z,999.7
2018-05-15T01:07:11.721Z,999.8
2018-05-15T01:08:12.450Z,999.7
2018-05-15T01:09:13.181Z,999.8
2018-05-15T01:10:13.903Z,999.8
2018-05-15T01:11:14.631Z,999.8
2018-05-15T01:12:15.359Z,999.8
2018-05-15T01:13:16.088Z,999.8
2018-05-15T01:14:17.160Z,999.8
2018-05-15T01:15:17.880Z,999.8
2018-05-15T01:16:18.861Z,999.8
2018-05-15T01:17:19.566Z,999.8
2018-05-15T01:18:20.285Z,999.8
2018-05-15T01:19:21.265Z,999.8
2018-05-15T01:20:21.966Z,999.8
2018-05-15T01:21:22.689Z,999.8
2018-05-15T01:22:23.410Z,999.8
2018-05-15T01:23:24.128Z,999.8
2018-05-15T01:24:24.896Z,999.8
2018-05-15T01:25:25.619Z,999.8
2018-05-15T01:26:26.535Z,999.8
2018-05-15T01:27:27.248Z,999.8
2018-05-15T01:28:27.972Z,999.9
2018-05-15T01:29:28.936Z,999.9
2018-05-15T01:30:29.721Z,999.8
2018-05-15T01:31:30.440Z,999.8
2018-05-15T01:32:31.173Z,999.8
2018-05-15T01:33:31.891Z,999.8
2018-05-15T01:34:32.609Z,999.8
2018-05-15T01:35:33.475Z,999.8
2018-05-15T01:36:34.186Z,999.8
2018-05-15T01:37:34.910Z,999.8
2018-05-15T01:38:35.628Z,999.9
2018-05-15T01:39:36.350Z,999.8
2018-05-15T01:40:37.082Z,999.8
2018-05-15T01:41:38.146Z,999.9
2018-05-15T01:42:38.869Z,999.8
2018-05-15T01:43:39.585Z,999.9
2018-05-15T01:44:40.310Z,999.9
2018-05-15T01:45:41.035Z,999.8
2018-05-15T01:46:42.391Z,999.9
2018-05-15T01:47:43.118Z,999.8
2018-05-15T01:48:43.830Z,999.9
2018-05-15T01:49:44.563Z,999.9
2018-05-15T01:50:45.284Z,999.9
2018-05-15T01:51:46.008Z,999.9
2018-05-15T01:52:46.713Z,1000.0
2018-05-15T01:53:47.520Z,999.9
2018-05-15T01:54:48.229Z,999.9
2018-05-15T01:55:48.946Z,1000.0
2018-05-15T01:56:49.669Z,1000.0
2018-05-15T01:57:50.635Z,1000.0
2018-05-15T01:58:51.350Z,999.9
2018-05-15T01:59:52.068Z,1000.0
2018-05-15T02:00:53.052Z,1000.0
2018-05-15T02:01:53.763Z,1000.0
2018-05-15T02:02:54.471Z,1000.0
2018-05-15T02:03:55.194Z,1000.0
2018-05-15T02:04:55.913Z,1000.0
2018-05-15T02:05:56.649Z,1000.0
2018-05-15T02:06:57.819Z,1000.0
2018-05-15T02:07:58.800Z,1000.0
2018-05-15T02:08:59.528Z,1000.0
2018-05-15T02:10:00.232Z,1000.0
2018-05-15T02:11:00.961Z,1000.0
2018-05-15T02:12:01.775Z,1000.0
2018-05-15T02:13:02.491Z,1000.0
2018-05-15T02:14:03.221Z,1000.0
2018-05-15T02:15:03.955Z,1000.0
2018-05-15T02:16:04.670Z,1000.0
2018-05-15T02:17:06.121Z,1000.0
2018-05-15T02:18:06.822Z,1000.0
2018-05-15T02:19:07.557Z,1000.0
2018-05-15T02:20:08.267Z,1000.0
2018-05-15T02:21:08.992Z,1000.0
2018-05-15T02:22:09.811Z,1000.0
2018-05-15T02:23:10.533Z,1000.1
2018-05-15T02:24:11.239Z,1000.0
2018-05-15T02:25:12.014Z,1000.0
2018-05-15T02:26:12.724Z,1000.0
2018-05-15T02:27:13.448Z,1000.0
2018-05-15T02:28:14.177Z,1000.0
2018-05-15T02:29:14.896Z,1000.0
2018-05-15T02:30:15.606Z,1000.0
2018-05-15T02:31:16.331Z,1000.0
2018-05-15T02:32:17.210Z,1000.0
2018-05-15T02:33:17.920Z,1000.0
2018-05-15T02:34:18.646Z,1000.0
2018-05-15T02:35:19.375Z,1000.0
2018-05-15T02:36:20.093Z,1000.0
2018-05-15T02:37:20.873Z,1000.0
2018-05-15T02:38:21.607Z,1000.0
2018-05-15T02:39:22.312Z,1000.0
2018-05-15T02:40:23.056Z,999.9
2018-05-15T02:41:23.790Z,999.9
2018-05-15T02:42:24.515Z,1000.0
2018-05-15T02:43:25.228Z,999.9
2018-05-15T02:44:26.193Z,999.9
2018-05-15T02:45:26.909Z,999.9
2018-05-15T02:46:27.630Z,999.9
2018-05-15T02:47:28.344Z,999.9
2018-05-15T02:48:29.064Z,999.9
2018-05-15T02:49:29.784Z,999.9
2018-05-15T02:50:30.521Z,999.9
2018-05-15T02:51:31.225Z,999.9
2018-05-15T02:52:31.950Z,999.9
2018-05-15T02:53:32.937Z,999.8
2018-05-15T02:54:33.695Z,999.9
2018-05-15T02:55:34.413Z,999.8
2018-05-15T02:56:35.382Z,999.9
2018-05-15T02:57:36.085Z,999.9
2018-05-15T02:58:36.799Z,999.9
2018-05-15T02:59:37.532Z,999.9
2018-05-15T03:00:38.256Z,999.9
2018-05-15T03:01:39.222Z,999.8
2018-05-15T03:02:39.943Z,999.9
2018-05-15T03:03:40.670Z,999.9
2018-05-15T03:04:41.434Z,999.9
2018-05-15T03:05:42.152Z,999.8
2018-05-15T03:06:42.889Z,999.9
2018-05-15T03:07:43.605Z,999.8
2018-05-15T03:08:44.322Z,999.9
2018-05-15T03:09:45.040Z,999.9
2018-05-15T03:10:45.764Z,999.9
2018-05-15T03:11:46.556Z,999.9
2018-05-15T03:12:47.240Z,999.9
2018-05-15T03:13:47.967Z,999.9
2018-05-15T03:14:48.687Z,999.9
2018-05-15T03:15:49.418Z,999.9
2018-05-15T03:16:50.139Z,999.9
2018-05-15T03:17:50.863Z,999.9
2018-05-15T03:18:51.932Z,1000.0
2018-05-15T03:19:52.660Z,999.9
2018-05-15T03:20:53.388Z,1000.0
2018-05-15T03:21:54.109Z,1000.0
2018-05-15T03:22:54.824Z,1000.0
2018-05-15T03:23:55.545Z,1000.0
2018-05-15T03:24:56.253Z,1000.0
2018-05-15T03:25:56.977Z,1000.0
2018-05-15T03:26:57.702Z,1000.0
2018-05-15T03:27:58.434Z,1000.1
2018-05-15T03:28:59.408Z,1000.0
2018-05-15T03:30:00.189Z,1000.1
2018-05-15T03:31:00.915Z,1000.1
2018-05-15T03:32:01.665Z,1000.0
2018-05-15T03:33:02.395Z,1000.0
2018-05-15T03:34:03.134Z,1000.0
2018-05-15T03:35:03.893Z,1000.0
2018-05-15T03:36:04.613Z,1000.1
2018-05-15T03:37:05.335Z,1000.1
2018-05-15T03:38:06.081Z,1000.1
2018-05-15T03:39:06.799Z,1000.1
2018-05-15T03:40:07.536Z,1000.1
2018-05-15T03:41:08.258Z,1000.1
2018-05-15T03:42:08.990Z,1000.1
2018-05-15T03:43:09.710Z,1000.1
2018-05-15T03:44:10.422Z,1000.1
2018-05-15T03:45:11.197Z,1000.1
2018-05-15T03:46:11.916Z,1000.2
2018-05-15T03:47:12.657Z,1000.1
2018-05-15T03:48:13.369Z,1000.1
2018-05-15T03:49:14.094Z,1000.2
2018-05-15T03:50:14.859Z,1000.2
2018-05-15T03:51:15.575Z,1000.2
2018-05-15T03:52:16.308Z,1000.2
2018-05-15T03:53:17.011Z,1000.2
2018-05-15T03:54:17.734Z,1000.2
2018-05-15T03:55:18.449Z,1000.2
2018-05-15T03:56:19.458Z,1000.2
2018-05-15T03:57:20.178Z,1000.2
2018-05-15T03:58:20.897Z,1000.2
2018-05-15T03:59:21.624Z,1000.2
2018-05-15T04:00:22.357Z,1000.2
2018-05-15T04:01:23.091Z,1000.2
2018-05-15T04:02:23.920Z,1000.2
2018-05-15T04:03:24.540Z,1000.2
2018-05-15T04:04:25.282Z,1000.2
2018-05-15T04:05:26.393Z,1000.2
2018-05-15T04:06:27.372Z,1000.2
2018-05-15T04:07:28.097Z,1000.2
2018-05-15T04:08:28.810Z,1000.2
2018-05-15T04:09:29.541Z,1000.2
2018-05-15T04:10:30.314Z,1000.2
2018-05-15T04:11:31.042Z,1000.3
2018-05-15T04:12:31.772Z,1000.3
2018-05-15T04:13:32.488Z,1000.3
2018-05-15T04:14:33.208Z,1000.3
2018-05-15T04:15:34.031Z,1000.3
2018-05-15T04:16:34.757Z,1000.3
2018-05-15T04:17:35.479Z,1000.3
2018-05-15T04:18:36.194Z,1000.3
2018-05-15T04:19:37.166Z,1000.3
2018-05-15T04:20:37.890Z,1000.3
2018-05-15T04:21:38.608Z,1000.2
2018-05-15T04:22:39.329Z,1000.2
2018-05-15T04:23:40.406Z,1000.3
2018-05-15T04:24:41.136Z,1000.3
2018-05-15T04:25:41.875Z,1000.3
2018-05-15T04:26:42.608Z,1000.3
2018-05-15T04:27:43.321Z,1000.3
2018-05-15T04:28:44.305Z,1000.3
2018-05-15T04:29:45.126Z,1000.3
2018-05-15T04:30:45.847Z,1000.3
2018-05-15T04:31:46.576Z,1000.3
2018-05-15T04:32:47.304Z,1000.3
2018-05-15T04:33:48.278Z,1000.3
2018-05-15T04:34:49.629Z,1000.3
2018-05-15T04:35:50.358Z,1000.2
2018-05-15T04:36:51.094Z,1000.2
2018-05-15T04:37:51.805Z,1000.2
2018-05-15T04:38:52.779Z,1000.3
2018-05-15T04:39:53.545Z,1000.3
2018-05-15T04:40:54.269Z,1000.3
2018-05-15T04:41:54.994Z,1000.3
2018-05-15T04:42:55.718Z,1000.4
2018-05-15T04:43:56.468Z,1000.4
2018-05-15T04:44:57.181Z,1000.4
2018-05-15T04:45:57.907Z,1000.3
2018-05-15T04:46:58.783Z,1000.4
2018-05-15T04:47:59.502Z,1000.4
2018-05-15T04:49:00.221Z,1000.3
2018-05-15T04:50:00.960Z,1000.4
2018-05-15T04:51:01.683Z,1000.4
2018-05-15T04:52:02.804Z,1000.3
2018-05-15T04:53:03.527Z,1000.4
2018-05-15T04:54:04.264Z,1000.4
2018-05-15T04:55:04.994Z,1000.5
2018-05-15T04:56:05.730Z,1000.5
2018-05-15T04:57:06.451Z,1000.5
2018-05-15T04:58:07.460Z,1000.5
2018-05-15T04:59:08.182Z,1000.5
2018-05-15T05:00:08.925Z,1000.5
2018-05-15T05:01:09.633Z,1000.5
2018-05-15T05:02:10.467Z,1000.5
2018-05-15T05:03:11.194Z,1000.5
2018-05-15T05:04:11.908Z,1000.5
2018-05-15T05:05:12.885Z,1000.5
2018-05-15T05:06:13.597Z,1000.5
2018-05-15T05:07:14.318Z,1000.5
2018-05-15T05:08:15.352Z,1000.5
2018-05-15T05:09:16.087Z,1000.5
2018-05-15T05:10:16.815Z,1000.6
2018-05-15T05:11:17.790Z,1000.6
2018-05-15T05:12:18.525Z,1000.5
2018-05-15T05:13:19.243Z,1000.6
2018-05-15T05:14:19.968Z,1000.5
2018-05-15T05:15:20.712Z,1000.6
2018-05-15T05:16:21.446Z,1000.6
2018-05-15T05:17:22.171Z,1000.6
2018-05-15T05:18:22.900Z,1000.6
2018-05-15T05:19:23.639Z,1000.6
2018-05-15T05:20:24.361Z,1000.6
2018-05-15T05:21:25.086Z,1000.6
2018-05-15T05:22:25.798Z,1000.6
2018-05-15T05:23:26.775Z,1000.6
2018-05-15T05:24:27.489Z,1000.6
2018-05-15T05:25:28.208Z,1000.6
2018-05-15T05:26:28.931Z,1000.6
2018-05-15T05:27:29.650Z,1000.7
2018-05-15T05:28:30.379Z,1000.7
2018-05-15T05:29:31.120Z,1000.7
2018-05-15T05:30:31.844Z,1000.7
2018-05-15T05:31:32.917Z,1000.7
2018-05-15T05:32:33.648Z,1000.7
2018-05-15T05:33:34.374Z,1000.7
2018-05-15T05:34:35.107Z,1000.7
2018-05-15T05:35:35.828Z,1000.7
2018-05-15T05:36:36.808Z,1000.8
2018-05-15T05:37:37.539Z,1000.8
2018-05-15T05:38:38.256Z,1000.8
2018-05-15T05:39:38.986Z,1000.8
2018-05-15T05:40:39.711Z,1000.8
2018-05-15T05:41:40.805Z,1000.9
2018-05-15T05:42:41.540Z,1000.9
2018-05-15T05:43:42.269Z,1000.9
2018-05-15T05:44:42.993Z,1000.9
2018-05-15T05:45:43.719Z,1001.0
2018-05-15T05:46:44.551Z,1001.0
2018-05-15T05:47:45.274Z,1001.0
2018-05-15T05:48:46.000Z,1001.0
2018-05-15T05:49:47.250Z,1001.1
2018-05-15T05:50:48.012Z,1001.0
2018-05-15T05:51:48.731Z,1001.0
2018-05-15T05:52:49.828Z,1001.0
2018-05-15T05:53:50.553Z,1001.0
2018-05-15T05:54:51.303Z,1001.0
2018-05-15T05:55:52.027Z,1001.0
2018-05-15T05:56:52.755Z,1000.9
2018-05-15T05:57:53.483Z,1001.0
2018-05-15T05:58:54.207Z,1001.0
2018-05-15T05:59:55.032Z,1001.0
2018-05-15T06:00:55.752Z,1001.0
2018-05-15T06:01:56.475Z,1001.0
2018-05-15T06:02:57.202Z,1001.0
2018-05-15T06:03:57.924Z,1001.0
2018-05-15T06:04:59.062Z,1001.0
2018-05-15T06:05:59.789Z,1001.0
2018-05-15T06:07:00.524Z,1001.0
2018-05-15T06:08:01.252Z,1001.0
2018-05-15T06:09:02.231Z,1001.0
2018-05-15T06:10:02.967Z,1001.0
2018-05-15T06:11:03.696Z,1001.0
2018-05-15T06:12:04.568Z,1001.1
2018-05-15T06:13:05.311Z,1001.0
2018-05-15T06:14:06.037Z,1001.0
2018-05-15T06:15:06.761Z,1001.1
2018-05-15T06:16:07.489Z,1001.0
2018-05-15T06:17:08.222Z,1001.1
2018-05-15T06:18:08.932Z,1001.1
2018-05-15T06:19:09.668Z,1001.1
2018-05-15T06:20:10.397Z,1001.1
2018-05-15T06:21:11.134Z,1001.0
2018-05-15T06:22:12.262Z,1001.0
2018-05-15T06:23:12.993Z,1001.1
2018-05-15T06:24:13.721Z,1001.1
2018-05-15T06:25:14.443Z,1001.1
2018-05-15T06:26:15.421Z,1001.1
2018-05-15T06:27:16.209Z,1001.1
2018-05-15T06:28:16.933Z,1001.1
2018-05-15T06:29:17.671Z,1001.1
2018-05-15T06:30:18.394Z,1001.1
2018-05-15T06:31:19.133Z,1001.1
2018-05-15T06:32:19.905Z,1001.1
2018-05-15T06:33:20.587Z,1001.1
2018-05-15T06:34:21.317Z,1001.1
2018-05-15T06:35:22.309Z,1001.1
2018-05-15T06:36:23.044Z,1001.1
2018-05-15T06:37:23.763Z,1001.1
2018-05-15T06:38:24.575Z,1001.0
2018-05-15T06:39:25.303Z,1001.0
2018-05-15T06:40:26.050Z,1001.0
2018-05-15T06:41:26.777Z,1001.1
2018-05-15T06:42:27.504Z,1001.1
2018-05-15T06:43:29.033Z,1001.1
2018-05-15T06:44:29.764Z,1001.1
2018-05-15T06:45:30.493Z,1001.1
2018-05-15T06:46:31.220Z,1001.1
2018-05-15T06:47:31.951Z,1001.1
2018-05-15T06:48:33.089Z,1001.1
2018-05-15T06:49:33.822Z,1001.1
2018-05-15T06:50:34.548Z,1001.2
2018-05-15T06:51:35.272Z,1001.2
2018-05-15T06:52:36.006Z,1001.2
2018-05-15T06:53:37.334Z,1001.2
2018-05-15T06:54:38.064Z,1001.2
2018-05-15T06:55:38.796Z,1001.2
2018-05-15T06:56:39.774Z,1001.2
2018-05-15T06:57:40.502Z,1001.2
2018-05-15T06:58:41.230Z,1001.1
2018-05-15T06:59:41.960Z,1001.1
2018-05-15T07:00:42.696Z,1001.1
2018-05-15T07:01:43.467Z,1001.1
2018-05-15T07:02:44.180Z,1001.1
2018-05-15T07:03:44.900Z,1001.1
2018-05-15T07:04:45.651Z,1001.1
2018-05-15T07:05:46.386Z,1001.1
2018-05-15T07:06:47.117Z,1001.1
2018-05-15T07:07:47.937Z,1001.1
2018-05-15T07:08:48.564Z,1001.1
2018-05-15T07:09:49.743Z,1001.1
2018-05-15T07:10:50.474Z,1001.1
2018-05-15T07:11:51.196Z,1001.2
2018-05-15T07:12:51.927Z,1001.1
2018-05-15T07:13:52.654Z,1001.1
2018-05-15T07:14:53.394Z,1001.1
2018-05-15T07:15:54.122Z,1001.1
2018-05-15T07:16:54.840Z,1001.1
2018-05-15T07:17:55.582Z,1001.1
2018-05-15T07:18:56.374Z,1001.1
2018-05-15T07:19:57.103Z,1001.2
2018-05-15T07:20:57.832Z,1001.2
2018-05-15T07:21:58.582Z,1001.2
2018-05-15T07:22:59.317Z,1001.2
2018-05-15T07:24:00.060Z,1001.2
2018-05-15T07:25:00.778Z,1001.2
2018-05-15T07:26:01.512Z,1001.2
2018-05-15T07:27:02.235Z,1001.2
2018-05-15T07:28:02.988Z,1001.3
2018-05-15T07:29:03.723Z,1001.3
2018-05-15T07:30:04.444Z,1001.3
2018-05-15T07:31:05.191Z,1001.3
2018-05-15T07:32:06.018Z,1001.3
2018-05-15T07:33:06.792Z,1001.3
2018-05-15T07:34:07.480Z,1001.3
2018-05-15T07:35:08.196Z,1001.2
2018-05-15T07:36:08.933Z,1001.2
2018-05-15T07:37:10.308Z,1001.2
2018-05-15T07:38:11.040Z,1001.2
2018-05-15T07:39:11.760Z,1001.3
2018-05-15T07:40:12.566Z,1001.2
2018-05-15T07:41:13.480Z,1001.2
2018-05-15T07:42:14.742Z,1001.2
2018-05-15T07:43:15.463Z,1001.3
2018-05-15T07:44:16.202Z,1001.3
2018-05-15T07:45:16.926Z,1001.3
2018-05-15T07:46:18.170Z,1001.3
2018-05-15T07:47:18.884Z,1001.3
2018-05-15T07:48:19.726Z,1001.3
2018-05-15T07:49:20.356Z,1001.3
2018-05-15T07:50:21.347Z,1001.3
2018-05-15T07:51:22.092Z,1001.3
2018-05-15T07:52:22.825Z,1001.3
2018-05-15T07:53:23.816Z,1001.3
2018-05-15T07:54:24.561Z,1001.3
2018-05-15T07:55:25.337Z,1001.3
2018-05-15T07:56:26.077Z,1001.4
2018-05-15T07:57:26.802Z,1001.4
2018-05-15T07:58:27.535Z,1001.4
2018-05-15T07:59:28.525Z,1001.4
2018-05-15T08:00:29.243Z,1001.4
2018-05-15T08:01:29.969Z,1001.4
2018-05-15T08:02:30.700Z,1001.4
2018-05-15T08:03:31.436Z,1001.4
2018-05-15T08:04:32.223Z,1001.4
2018-05-15T08:05:32.906Z,1001.4
2018-05-15T08:06:33.894Z,1001.4
2018-05-15T08:07:34.612Z,1001.4
2018-05-15T08:08:35.336Z,1001.5
2018-05-15T08:09:36.067Z,1001.5
2018-05-15T08:10:36.809Z,1001.4
2018-05-15T08:11:37.790Z,1001.4
2018-05-15T08:12:38.523Z,1001.4
2018-05-15T08:13:39.255Z,1001.4
2018-05-15T08:14:39.990Z,1001.4
2018-05-15T08:15:41.031Z,1001.4
2018-05-15T08:16:41.749Z,1001.4
2018-05-15T08:17:42.474Z,1001.4
2018-05-15T08:18:43.204Z,1001.3
2018-05-15T08:19:43.943Z,1001.3
2018-05-15T08:20:44.776Z,1001.3
2018-05-15T08:21:45.511Z,1001.3
2018-05-15T08:22:46.249Z,1001.3
2018-05-15T08:23:46.975Z,1001.4
2018-05-15T08:24:47.714Z,1001.3
2018-05-15T08:25:48.593Z,1001.4
2018-05-15T08:26:49.327Z,1001.4
2018-05-15T08:27:50.064Z,1001.4
2018-05-15T08:28:50.790Z,1001.4
2018-05-15T08:29:51.767Z,1001.5
2018-05-15T08:30:52.543Z,1001.5
2018-05-15T08:31:53.265Z,1001.5
2018-05-15T08:32:53.985Z,1001.5
2018-05-15T08:33:54.727Z,1001.5
2018-05-15T08:34:55.460Z,1001.5
2018-05-15T08:35:56.188Z,1001.6
2018-05-15T08:36:56.915Z,1001.6
2018-05-15T08:37:57.647Z,1001.6
2018-05-15T08:38:58.377Z,1001.6
2018-05-15T08:39:59.115Z,1001.5
2018-05-15T08:40:59.838Z,1001.6
2018-05-15T08:42:00.568Z,1001.5
2018-05-15T08:43:01.550Z,1001.6
2018-05-15T08:44:02.276Z,1001.6
2018-05-15T08:45:02.999Z,1001.6
2018-05-15T08:46:03.740Z,1001.5
2018-05-15T08:47:04.459Z,1001.6
2018-05-15T08:48:05.194Z,1001.6
2018-05-15T08:49:05.925Z,1001.6
2018-05-15T08:50:06.663Z,1001.6
2018-05-15T08:51:07.636Z,1001.6
2018-05-15T08:52:08.368Z,1001.6
2018-05-15T08:53:09.561Z,1001.6
2018-05-15T08:54:10.287Z,1001.6
2018-05-15T08:55:11.016Z,1001.6
2018-05-15T08:56:12.003Z,1001.6
2018-05-15T08:57:12.726Z,1001.6
2018-05-15T08:58:13.817Z,1001.6
2018-05-15T08:59:14.797Z,1001.6
2018-05-15T09:00:15.530Z,1001.6
2018-05-15T09:01:16.272Z,1001.7
2018-05-15T09:02:16.995Z,1001.6
2018-05-15T09:03:17.735Z,1001.7
2018-05-15T09:04:18.806Z,1001.6
2018-05-15T09:05:19.792Z,1001.6
2018-05-15T09:06:20.524Z,1001.6
2018-05-15T09:07:21.270Z,1001.6
2018-05-15T09:08:21.992Z,1001.7
2018-05-15T09:09:22.796Z,1001.6
2018-05-15T09:10:23.796Z,1001.7
2018-05-15T09:11:24.548Z,1001.7
2018-05-15T09:12:25.284Z,1001.6
2018-05-15T09:13:26.022Z,1001.7
2018-05-15T09:14:26.753Z,1001.7
2018-05-15T09:15:27.480Z,1001.7
2018-05-15T09:16:28.204Z,1001.7
2018-05-15T09:17:28.928Z,1001.7
2018-05-15T09:18:29.675Z,1001.7
2018-05-15T09:19:30.410Z,1001.7
2018-05-15T09:20:31.166Z,1001.7
2018-05-15T09:21:31.996Z,1001.7
2018-05-15T09:22:32.730Z,1001.6
2018-05-15T09:23:33.483Z,1001.6
2018-05-15T09:24:34.216Z,1001.7
2018-05-15T09:25:34.940Z,1001.6
2018-05-15T09:26:35.683Z,1001.7
2018-05-15T09:27:36.414Z,1001.7
2018-05-15T09:28:37.409Z,1001.7
2018-05-15T09:29:38.134Z,1001.7
2018-05-15T09:30:39.114Z,1001.7
2018-05-15T09:31:39.854Z,1001.7
2018-05-15T09:32:40.583Z,1001.7
2018-05-15T09:33:41.570Z,1001.7
2018-05-15T09:34:42.319Z,1001.7
2018-05-15T09:35:43.048Z,1001.7
2018-05-15T09:36:43.781Z,1001.7
2018-05-15T09:37:44.521Z,1001.6
2018-05-15T09:38:45.263Z,1001.6
2018-05-15T09:39:45.998Z,1001.6
2018-05-15T09:40:46.722Z,1001.6
2018-05-15T09:41:47.453Z,1001.6
2018-05-15T09:42:48.185Z,1001.6
2018-05-15T09:43:48.921Z,1001.6
2018-05-15T09:44:49.655Z,1001.6
2018-05-15T09:45:50.396Z,1001.6
2018-05-15T09:46:51.157Z,1001.6
2018-05-15T09:47:51.868Z,1001.6
2018-05-15T09:48:52.623Z,1001.6
2018-05-15T09:49:53.398Z,1001.6
2018-05-15T09:50:54.390Z,1001.6
2018-05-15T09:51:55.127Z,1001.6
2018-05-15T09:52:56.111Z,1001.6
2018-05-15T09:53:56.841Z,1001.6
2018-05-15T09:54:57.680Z,1001.6
2018-05-15T09:55:58.404Z,1001.5
2018-05-15T09:56:59.142Z,1001.5
2018-05-15T09:57:59.867Z,1001.5
2018-05-15T09:59:00.606Z,1001.6
2018-05-15T10:00:01.331Z,1001.6
2018-05-15T10:01:02.077Z,1001.6
2018-05-15T10:02:02.827Z,1001.6
2018-05-15T10:03:03.586Z,1001.5
2018-05-15T10:04:04.307Z,1001.5
2018-05-15T10:05:05.403Z,1001.6
2018-05-15T10:06:06.136Z,1001.6
2018-05-15T10:07:06.867Z,1001.5
2018-05-15T10:08:07.642Z,1001.5
2018-05-15T10:09:08.348Z,1001.5
2018-05-15T10:10:09.136Z,1001.5
2018-05-15T10:11:09.872Z,1001.5
2018-05-15T10:12:10.632Z,1001.5
2018-05-15T10:13:11.360Z,1001.5
2018-05-15T10:14:12.162Z,1001.4
2018-05-15T10:15:12.835Z,1001.4
2018-05-15T10:16:14.029Z,1001.4
2018-05-15T10:17:14.775Z,1001.3
2018-05-15T10:18:15.508Z,1001.3
2018-05-15T10:19:16.243Z,1001.3
2018-05-15T10:20:16.976Z,1001.3
2018-05-15T10:21:17.753Z,1001.3
2018-05-15T10:22:18.738Z,1001.3
2018-05-15T10:23:19.473Z,1001.2
2018-05-15T10:24:20.458Z,1001.2
2018-05-15T10:25:21.209Z,1001.3
2018-05-15T10:26:22.037Z,1001.2
2018-05-15T10:27:22.725Z,1001.3
2018-05-15T10:28:23.467Z,1001.3
2018-05-15T10:29:24.200Z,1001.3
2018-05-15T10:30:24.932Z,1001.3
2018-05-15T10:31:26.013Z,1001.3
2018-05-15T10:32:27.035Z,1001.3
2018-05-15T10:33:27.738Z,1001.3
2018-05-15T10:34:28.460Z,1001.3
2018-05-15T10:35:29.201Z,1001.3
2018-05-15T10:36:30.094Z,1001.3
2018-05-15T10:37:30.825Z,1001.3
2018-05-15T10:38:31.557Z,1001.3
2018-05-15T10:39:32.289Z,1001.3
2018-05-15T10:40:33.036Z,1001.3
2018-05-15T10:41:34.154Z,1001.3
2018-05-15T10:42:35.135Z,1001.3
2018-05-15T10:43:35.866Z,1001.3
2018-05-15T10:44:36.619Z,1001.3
2018-05-15T10:45:37.357Z,1001.3
2018-05-15T10:46:38.105Z,1001.3
2018-05-15T10:47:38.827Z,1001.3
2018-05-15T10:48:39.573Z,1001.3
2018-05-15T10:49:40.308Z,1001.3
2018-05-15T10:50:41.170Z,1001.3
2018-05-15T10:51:41.815Z,1001.2
2018-05-15T10:52:42.554Z,1001.2
2018-05-15T10:53:43.298Z,1001.2
2018-05-15T10:54:44.279Z,1001.1
2018-05-15T10:55:45.440Z,1001.1
2018-05-15T10:56:46.167Z,1001.1
2018-05-15T10:57:46.898Z,1001.1
2018-05-15T10:58:47.650Z,1001.1
2018-05-15T10:59:48.392Z,1001.1
2018-05-15T11:00:49.379Z,1001.1
2018-05-15T11:01:50.113Z,1001.2
2018-05-15T11:02:50.852Z,1001.1
2018-05-15T11:03:51.596Z,1001.1
2018-05-15T11:04:52.333Z,1001.0
2018-05-15T11:05:53.319Z,1001.0
2018-05-15T11:06:54.064Z,1001.1
2018-05-15T11:07:55.680Z,1001.1
2018-05-15T11:08:56.612Z,1001.1
2018-05-15T11:09:57.347Z,1001.0
2018-05-15T11:10:58.393Z,1001.1
2018-05-15T11:11:59.323Z,1001.0
2018-05-15T11:13:00.065Z,1001.2
2018-05-15T11:14:00.791Z,1001.0
2018-05-15T11:15:01.775Z,1001.1
2018-05-15T11:16:02.501Z,1001.0
2018-05-15T11:17:03.489Z,1001.0
2018-05-15T11:18:04.223Z,1001.0
2018-05-15T11:19:04.954Z,1000.9
2018-05-15T11:20:05.696Z,1001.0
2018-05-15T11:21:06.431Z,1001.0
2018-05-15T11:22:07.424Z,1001.0
2018-05-15T11:23:08.631Z,1001.0
2018-05-15T11:24:09.360Z,1001.0
2018-05-15T11:25:10.368Z,1000.9
2018-05-15T11:26:11.120Z,1000.9
2018-05-15T11:27:12.341Z,1000.9
2018-05-15T11:28:13.176Z,1000.9
2018-05-15T11:29:13.934Z,1000.9
2018-05-15T11:30:14.668Z,1000.9
2018-05-15T11:31:15.397Z,1000.9
2018-05-15T11:32:16.135Z,1001.0
2018-05-15T11:33:16.888Z,1000.9
2018-05-15T11:34:17.732Z,1000.9
2018-05-15T11:35:18.474Z,1000.9
2018-05-15T11:36:19.211Z,1000.9
2018-05-15T11:37:19.946Z,1000.8
2018-05-15T11:38:20.675Z,1000.8
2018-05-15T11:39:21.408Z,1000.8
2018-05-15T11:40:22.395Z,1000.8
2018-05-15T11:41:23.154Z,1000.8
2018-05-15T11:42:23.881Z,1000.8
2018-05-15T11:43:24.618Z,1000.8
2018-05-15T11:44:25.480Z,1000.8
2018-05-15T11:45:26.199Z,1000.8
2018-05-15T11:46:26.942Z,1000.8
2018-05-15T11:47:27.857Z,1000.8
2018-05-15T11:48:28.939Z,1000.8
2018-05-15T11:49:29.691Z,1000.8
2018-05-15T11:50:30.582Z,1000.7
2018-05-15T11:51:31.570Z,1000.7
2018-05-15T11:52:32.071Z,1000.8
2018-05-15T11:53:32.130Z,1000.7
2018-05-15T11:54:32.914Z,1000.7
2018-05-15T11:55:35.296Z,1000.8
2018-05-15T11:56:34.453Z,1000.7
2018-05-15T11:57:35.133Z,1000.7
2018-05-15T11:58:35.865Z,1000.7
2018-05-15T11:59:36.598Z,1000.7
2018-05-15T12:00:37.346Z,1000.7
2018-05-15T12:01:38.078Z,1000.7
2018-05-15T12:02:38.893Z,1000.7
2018-05-15T12:03:39.566Z,1000.7
2018-05-15T12:04:40.289Z,1000.6
2018-05-15T12:05:41.012Z,1000.6
2018-05-15T12:06:41.757Z,1000.7
2018-05-15T12:07:42.498Z,1000.6
2018-05-15T12:08:43.244Z,1000.6
2018-05-15T12:09:44.029Z,1000.6
2018-05-15T12:10:44.759Z,1000.7
2018-05-15T12:11:45.493Z,1000.6
2018-05-15T12:12:46.240Z,1000.6
2018-05-15T12:13:46.965Z,1000.6
2018-05-15T12:14:47.695Z,1000.6
2018-05-15T12:15:48.430Z,1000.6
2018-05-15T12:16:49.419Z,1000.6
2018-05-15T12:17:50.149Z,1000.6
2018-05-15T12:18:50.885Z,1000.6
2018-05-15T12:19:51.874Z,1000.6
2018-05-15T12:20:52.632Z,1000.6
2018-05-15T12:21:53.362Z,1000.6
2018-05-15T12:22:54.510Z,1000.6
2018-05-15T12:23:55.490Z,1000.6
2018-05-15T12:24:56.217Z,1000.6
2018-05-15T12:25:56.962Z,1000.6
2018-05-15T12:26:57.747Z,1000.6
2018-05-15T12:27:58.604Z,1000.5
2018-05-15T12:28:59.279Z,1000.5
2018-05-15T12:30:00.021Z,1000.5
2018-05-15T12:31:00.751Z,1000.5
2018-05-15T12:32:01.491Z,1000.5
2018-05-15T12:33:02.224Z,1000.5
2018-05-15T12:34:02.960Z,1000.5
2018-05-15T12:35:04.095Z,1000.5
2018-05-15T12:36:04.835Z,1000.5
2018-05-15T12:37:05.564Z,1000.5
2018-05-15T12:38:06.305Z,1000.5
2018-05-15T12:39:07.041Z,1000.5
2018-05-15T12:40:07.792Z,1000.4
2018-05-15T12:41:08.555Z,1000.4
2018-05-15T12:42:09.440Z,1000.5
2018-05-15T12:43:09.980Z,1000.4